sensor_id;sensor_type;location;lat;lon;timestamp;pressure;altitude;pressure_sealevel;temperature;humidity
43503;BME280;29098;48.184;16.298;2023-02-20T00:00:52;100183.59;;;5.61;100.00
43503;BME280;29098;48.184;16.298;2023-02-20T00:03:18;100186.09;;;5.63;100.00
43503;BME280;29098;48.184;16.298;2023-02-20T00:05:43;100186.78;;;5.44;100.00
43503;BME280;29098;48.184;16.298;2023-02-20T00:08:08;100185.72;;;5.46;100.00
43503;BME280;29098;48.184;16.298;2023-02-20T00:10:33;100188.72;;;5.42;100.00
43503;BME280;29098;48.184;16.298;2023-02-20T00:12:59;100199.34;;;5.29;100.00
43503;BME280;29098;48.184;16.298;2023-02-20T00:15:24;100199.59;;;5.26;100.00
43503;BME280;29098;48.184;16.298;2023-02-20T00:17:50;100183.59;;;5.19;100.00
43503;BME280;29098;48.184;16.298;2023-02-20T00:20:16;100196.97;;;5.26;100.00
43503;BME280;29098;48.184;16.298;2023-02-20T00:22:42;100197.94;;;5.25;100.00
43503;BME280;29098;48.184;16.298;2023-02-20T00:25:07;100190.34;;;5.21;100.00
43503;BME280;29098;48.184;16.298;2023-02-20T00:27:32;100194.75;;;5.21;100.00
43503;BME280;29098;48.184;16.298;2023-02-20T00:29:58;100194.91;;;5.08;100.00
43503;BME280;29098;48.184;16.298;2023-02-20T00:32:23;100188.63;;;5.11;100.00
43503;BME280;29098;48.184;16.298;2023-02-20T00:34:48;100195.13;;;5.16;100.00
43503;BME280;29098;48.184;16.298;2023-02-20T00:37:13;100188.50;;;5.12;100.00
43503;BME280;29098;48.184;16.298;2023-02-20T00:39:39;100197.84;;;5.15;100.00
43503;BME280;29098;48.184;16.298;2023-02-20T00:42:04;100195.97;;;5.17;100.00
43503;BME280;29098;48.184;16.298;2023-02-20T00:44:30;100198.13;;;5.12;100.00
43503;BME280;29098;48.184;16.298;2023-02-20T00:46:55;100196.34;;;5.12;100.00
43503;BME280;29098;48.184;16.298;2023-02-20T00:49:20;100200.09;;;5.19;100.00
43503;BME280;29098;48.184;16.298;2023-02-20T00:51:46;100202.22;;;5.26;100.00
43503;BME280;29098;48.184;16.298;2023-02-20T00:54:12;100196.75;;;5.29;100.00
43503;BME280;29098;48.184;16.298;2023-02-20T00:56:37;100191.25;;;5.32;100.00
43503;BME280;29098;48.184;16.298;2023-02-20T00:59:02;100200.91;;;5.31;100.00
43503;BME280;29098;48.184;16.298;2023-02-20T01:01:28;100196.59;;;5.30;100.00
43503;BME280;29098;48.184;16.298;2023-02-20T01:03:53;100189.84;;;5.28;100.00
43503;BME280;29098;48.184;16.298;2023-02-20T01:06:19;100193.47;;;5.37;100.00
43503;BME280;29098;48.184;16.298;2023-02-20T01:08:44;100192.47;;;5.28;100.00
43503;BME280;29098;48.184;16.298;2023-02-20T01:11:09;100197.47;;;5.19;100.00
43503;BME280;29098;48.184;16.298;2023-02-20T01:13:35;100187.41;;;5.15;100.00
43503;BME280;29098;48.184;16.298;2023-02-20T01:16:00;100191.81;;;5.14;100.00
43503;BME280;29098;48.184;16.298;2023-02-20T01:18:25;100186.59;;;5.14;100.00
43503;BME280;29098;48.184;16.298;2023-02-20T01:20:50;100184.19;;;5.11;100.00
43503;BME280;29098;48.184;16.298;2023-02-20T01:23:16;100190.00;;;5.15;100.00
43503;BME280;29098;48.184;16.298;2023-02-20T01:25:41;100193.50;;;5.04;100.00
43503;BME280;29098;48.184;16.298;2023-02-20T01:28:06;100195.41;;;5.02;100.00
43503;BME280;29098;48.184;16.298;2023-02-20T01:30:32;100193.06;;;4.99;100.00
43503;BME280;29098;48.184;16.298;2023-02-20T01:32:57;100202.34;;;4.91;100.00
43503;BME280;29098;48.184;16.298;2023-02-20T01:35:22;100209.19;;;5.04;100.00
43503;BME280;29098;48.184;16.298;2023-02-20T01:37:48;100205.41;;;4.97;100.00
43503;BME280;29098;48.184;16.298;2023-02-20T01:40:15;100203.25;;;5.02;100.00
43503;BME280;29098;48.184;16.298;2023-02-20T01:42:40;100204.59;;;4.96;100.00
43503;BME280;29098;48.184;16.298;2023-02-20T01:47:47;100199.25;;;4.86;100.00
43503;BME280;29098;48.184;16.298;2023-02-20T01:50:12;100194.78;;;4.77;100.00
43503;BME280;29098;48.184;16.298;2023-02-20T01:52:39;100193.56;;;4.81;100.00
43503;BME280;29098;48.184;16.298;2023-02-20T01:57:30;100192.66;;;4.82;100.00
43503;BME280;29098;48.184;16.298;2023-02-20T02:00:03;100188.81;;;4.86;100.00
43503;BME280;29098;48.184;16.298;2023-02-20T02:02:30;100193.09;;;4.87;100.00
43503;BME280;29098;48.184;16.298;2023-02-20T02:04:57;100192.34;;;4.97;100.00
43503;BME280;29098;48.184;16.298;2023-02-20T02:07:22;100195.69;;;4.99;100.00
43503;BME280;29098;48.184;16.298;2023-02-20T02:12:13;100189.19;;;4.82;100.00
43503;BME280;29098;48.184;16.298;2023-02-20T02:14:39;100192.00;;;4.90;100.00
43503;BME280;29098;48.184;16.298;2023-02-20T02:22:25;100184.75;;;4.93;100.00
43503;BME280;29098;48.184;16.298;2023-02-20T02:32:56;100176.63;;;5.08;100.00
43503;BME280;29098;48.184;16.298;2023-02-20T02:43:17;100197.78;;;5.05;100.00
43503;BME280;29098;48.184;16.298;2023-02-20T02:48:32;100187.75;;;4.89;100.00
43503;BME280;29098;48.184;16.298;2023-02-20T02:51:15;100176.59;;;4.87;100.00
43503;BME280;29098;48.184;16.298;2023-02-20T02:54:02;100191.25;;;4.99;100.00
43503;BME280;29098;48.184;16.298;2023-02-20T02:56:35;100190.69;;;4.96;100.00
43503;BME280;29098;48.184;16.298;2023-02-20T02:59:00;100186.78;;;4.90;100.00
43503;BME280;29098;48.184;16.298;2023-02-20T03:01:26;100196.38;;;5.01;100.00
43503;BME280;29098;48.184;16.298;2023-02-20T03:03:52;100191.41;;;4.98;100.00
43503;BME280;29098;48.184;16.298;2023-02-20T03:06:20;100198.78;;;4.92;100.00
43503;BME280;29098;48.184;16.298;2023-02-20T03:08:50;100203.41;;;4.89;100.00
43503;BME280;29098;48.184;16.298;2023-02-20T03:11:21;100193.56;;;4.92;100.00
43503;BME280;29098;48.184;16.298;2023-02-20T03:13:52;100191.03;;;5.02;100.00
43503;BME280;29098;48.184;16.298;2023-02-20T03:16:45;100192.03;;;5.11;100.00
43503;BME280;29098;48.184;16.298;2023-02-20T03:19:16;100184.50;;;4.97;100.00
43503;BME280;29098;48.184;16.298;2023-02-20T03:21:45;100200.03;;;5.10;100.00
43503;BME280;29098;48.184;16.298;2023-02-20T03:24:12;100178.91;;;5.01;100.00
43503;BME280;29098;48.184;16.298;2023-02-20T03:26:38;100177.22;;;5.00;100.00
43503;BME280;29098;48.184;16.298;2023-02-20T03:29:18;100179.53;;;4.93;100.00
43503;BME280;29098;48.184;16.298;2023-02-20T03:31:53;100183.84;;;4.83;100.00
43503;BME280;29098;48.184;16.298;2023-02-20T03:34:38;100180.91;;;4.65;100.00
43503;BME280;29098;48.184;16.298;2023-02-20T03:37:23;100182.78;;;4.74;100.00
43503;BME280;29098;48.184;16.298;2023-02-20T03:40:09;100183.84;;;4.83;100.00
43503;BME280;29098;48.184;16.298;2023-02-20T03:42:56;100174.84;;;4.76;100.00
43503;BME280;29098;48.184;16.298;2023-02-20T03:45:42;100174.22;;;4.84;100.00
43503;BME280;29098;48.184;16.298;2023-02-20T03:48:16;100184.06;;;4.80;100.00
43503;BME280;29098;48.184;16.298;2023-02-20T03:50:42;100177.34;;;4.66;100.00
43503;BME280;29098;48.184;16.298;2023-02-20T03:53:07;100180.09;;;4.64;100.00
43503;BME280;29098;48.184;16.298;2023-02-20T03:55:33;100183.69;;;4.41;100.00
43503;BME280;29098;48.184;16.298;2023-02-20T03:57:59;100183.09;;;4.37;100.00
43503;BME280;29098;48.184;16.298;2023-02-20T04:00:30;100194.38;;;4.37;100.00
43503;BME280;29098;48.184;16.298;2023-02-20T04:02:59;100186.66;;;4.47;100.00
43503;BME280;29098;48.184;16.298;2023-02-20T04:05:28;100191.75;;;4.26;100.00
43503;BME280;29098;48.184;16.298;2023-02-20T04:10:21;100185.25;;;4.09;100.00
43503;BME280;29098;48.184;16.298;2023-02-20T04:12:48;100171.84;;;4.25;100.00
43503;BME280;29098;48.184;16.298;2023-02-20T04:15:15;100167.47;;;4.03;100.00
43503;BME280;29098;48.184;16.298;2023-02-20T04:17:44;100158.06;;;3.89;100.00
43503;BME280;29098;48.184;16.298;2023-02-20T04:20:11;100159.75;;;3.78;100.00
43503;BME280;29098;48.184;16.298;2023-02-20T04:22:37;100153.81;;;3.76;100.00
43503;BME280;29098;48.184;16.298;2023-02-20T04:25:12;100147.19;;;3.95;100.00
43503;BME280;29098;48.184;16.298;2023-02-20T04:27:42;100144.22;;;3.88;100.00
43503;BME280;29098;48.184;16.298;2023-02-20T04:30:07;100140.56;;;3.91;100.00
43503;BME280;29098;48.184;16.298;2023-02-20T04:32:34;100128.94;;;4.06;100.00
43503;BME280;29098;48.184;16.298;2023-02-20T04:34:59;100127.25;;;3.94;100.00
43503;BME280;29098;48.184;16.298;2023-02-20T04:37:25;100121.34;;;3.92;100.00
43503;BME280;29098;48.184;16.298;2023-02-20T04:39:50;100124.06;;;3.90;100.00
43503;BME280;29098;48.184;16.298;2023-02-20T04:42:15;100128.22;;;3.93;100.00
43503;BME280;29098;48.184;16.298;2023-02-20T04:44:41;100138.19;;;3.99;100.00
43503;BME280;29098;48.184;16.298;2023-02-20T04:47:09;100134.97;;;4.07;100.00
43503;BME280;29098;48.184;16.298;2023-02-20T04:49:36;100150.97;;;4.14;100.00
43503;BME280;29098;48.184;16.298;2023-02-20T04:52:01;100149.53;;;4.09;100.00
43503;BME280;29098;48.184;16.298;2023-02-20T04:54:27;100161.88;;;4.19;100.00
43503;BME280;29098;48.184;16.298;2023-02-20T04:56:52;100155.97;;;4.28;100.00
43503;BME280;29098;48.184;16.298;2023-02-20T04:59:17;100145.84;;;4.35;100.00
43503;BME280;29098;48.184;16.298;2023-02-20T05:01:43;100146.06;;;4.43;100.00
43503;BME280;29098;48.184;16.298;2023-02-20T05:04:14;100148.09;;;4.39;100.00
43503;BME280;29098;48.184;16.298;2023-02-20T05:06:40;100144.53;;;4.41;100.00
43503;BME280;29098;48.184;16.298;2023-02-20T05:09:06;100149.44;;;4.11;100.00
43503;BME280;29098;48.184;16.298;2023-02-20T05:11:33;100145.03;;;4.11;100.00
43503;BME280;29098;48.184;16.298;2023-02-20T05:13:58;100139.34;;;3.95;100.00
43503;BME280;29098;48.184;16.298;2023-02-20T05:16:24;100131.53;;;4.06;100.00
43503;BME280;29098;48.184;16.298;2023-02-20T05:18:49;100130.94;;;4.03;100.00
43503;BME280;29098;48.184;16.298;2023-02-20T05:21:14;100127.28;;;4.05;100.00
43503;BME280;29098;48.184;16.298;2023-02-20T05:23:58;100123.94;;;4.15;100.00
43503;BME280;29098;48.184;16.298;2023-02-20T05:26:23;100127.03;;;4.20;100.00
43503;BME280;29098;48.184;16.298;2023-02-20T05:28:49;100125.56;;;4.27;100.00
43503;BME280;29098;48.184;16.298;2023-02-20T05:31:14;100119.41;;;4.17;100.00
43503;BME280;29098;48.184;16.298;2023-02-20T05:33:40;100123.31;;;4.22;100.00
43503;BME280;29098;48.184;16.298;2023-02-20T05:36:05;100127.94;;;4.30;100.00
43503;BME280;29098;48.184;16.298;2023-02-20T05:38:31;100131.13;;;4.34;100.00
43503;BME280;29098;48.184;16.298;2023-02-20T05:40:56;100134.59;;;4.23;100.00
43503;BME280;29098;48.184;16.298;2023-02-20T05:43:21;100138.13;;;4.33;100.00
43503;BME280;29098;48.184;16.298;2023-02-20T05:45:47;100129.00;;;4.39;100.00
43503;BME280;29098;48.184;16.298;2023-02-20T05:48:13;100122.50;;;4.22;100.00
43503;BME280;29098;48.184;16.298;2023-02-20T05:50:38;100136.13;;;4.25;100.00
43503;BME280;29098;48.184;16.298;2023-02-20T05:53:04;100136.00;;;4.27;100.00
43503;BME280;29098;48.184;16.298;2023-02-20T05:55:29;100145.25;;;4.31;100.00
43503;BME280;29098;48.184;16.298;2023-02-20T05:57:55;100148.47;;;4.35;100.00
43503;BME280;29098;48.184;16.298;2023-02-20T06:00:20;100153.06;;;4.43;100.00
43503;BME280;29098;48.184;16.298;2023-02-20T06:02:46;100154.50;;;4.47;100.00
43503;BME280;29098;48.184;16.298;2023-02-20T06:05:11;100147.13;;;4.41;100.00
43503;BME280;29098;48.184;16.298;2023-02-20T06:07:36;100147.72;;;4.44;100.00
43503;BME280;29098;48.184;16.298;2023-02-20T06:10:02;100142.38;;;4.46;100.00
43503;BME280;29098;48.184;16.298;2023-02-20T06:12:28;100138.44;;;4.51;100.00
43503;BME280;29098;48.184;16.298;2023-02-20T06:14:53;100146.06;;;4.55;100.00
43503;BME280;29098;48.184;16.298;2023-02-20T06:17:19;100158.75;;;4.59;100.00
43503;BME280;29098;48.184;16.298;2023-02-20T06:19:45;100160.03;;;4.53;100.00
43503;BME280;29098;48.184;16.298;2023-02-20T06:22:11;100146.97;;;4.53;100.00
43503;BME280;29098;48.184;16.298;2023-02-20T06:24:36;100163.81;;;4.61;100.00
43503;BME280;29098;48.184;16.298;2023-02-20T06:27:02;100155.28;;;4.59;100.00
43503;BME280;29098;48.184;16.298;2023-02-20T06:29:28;100146.88;;;4.55;100.00
43503;BME280;29098;48.184;16.298;2023-02-20T06:31:53;100155.88;;;4.62;100.00
43503;BME280;29098;48.184;16.298;2023-02-20T06:34:21;100150.88;;;4.71;100.00
43503;BME280;29098;48.184;16.298;2023-02-20T06:36:49;100152.41;;;4.62;100.00
43503;BME280;29098;48.184;16.298;2023-02-20T06:39:15;100151.28;;;4.87;100.00
43503;BME280;29098;48.184;16.298;2023-02-20T06:41:40;100161.31;;;5.03;100.00
43503;BME280;29098;48.184;16.298;2023-02-20T06:44:06;100152.00;;;4.89;100.00
43503;BME280;29098;48.184;16.298;2023-02-20T06:46:31;100153.88;;;4.99;100.00
43503;BME280;29098;48.184;16.298;2023-02-20T06:48:57;100152.91;;;5.00;100.00
43503;BME280;29098;48.184;16.298;2023-02-20T06:51:24;100156.97;;;4.92;100.00
43503;BME280;29098;48.184;16.298;2023-02-20T06:53:50;100150.91;;;4.92;100.00
43503;BME280;29098;48.184;16.298;2023-02-20T06:56:20;100155.50;;;5.00;100.00
43503;BME280;29098;48.184;16.298;2023-02-20T06:58:46;100157.50;;;5.07;100.00
43503;BME280;29098;48.184;16.298;2023-02-20T07:01:12;100160.44;;;5.14;100.00
43503;BME280;29098;48.184;16.298;2023-02-20T07:03:38;100169.25;;;5.13;100.00
43503;BME280;29098;48.184;16.298;2023-02-20T07:06:03;100164.16;;;5.33;100.00
43503;BME280;29098;48.184;16.298;2023-02-20T07:08:28;100140.13;;;5.70;100.00
43503;BME280;29098;48.184;16.298;2023-02-20T07:10:54;100136.78;;;6.21;100.00
43503;BME280;29098;48.184;16.298;2023-02-20T07:13:20;100121.28;;;6.49;100.00
43503;BME280;29098;48.184;16.298;2023-02-20T07:15:45;100112.88;;;6.75;100.00
43503;BME280;29098;48.184;16.298;2023-02-20T07:18:11;100120.59;;;6.96;100.00
43503;BME280;29098;48.184;16.298;2023-02-20T07:20:36;100109.13;;;7.17;100.00
43503;BME280;29098;48.184;16.298;2023-02-20T07:23:02;100115.59;;;7.32;100.00
43503;BME280;29098;48.184;16.298;2023-02-20T07:25:28;100117.22;;;7.43;100.00
43503;BME280;29098;48.184;16.298;2023-02-20T07:27:53;100115.38;;;7.53;100.00
43503;BME280;29098;48.184;16.298;2023-02-20T07:30:19;100123.00;;;7.57;100.00
43503;BME280;29098;48.184;16.298;2023-02-20T07:32:44;100119.94;;;7.61;100.00
43503;BME280;29098;48.184;16.298;2023-02-20T07:35:09;100110.78;;;7.65;100.00
43503;BME280;29098;48.184;16.298;2023-02-20T07:37:35;100115.47;;;7.72;100.00
43503;BME280;29098;48.184;16.298;2023-02-20T07:40:00;100103.03;;;7.74;100.00
43503;BME280;29098;48.184;16.298;2023-02-20T07:42:25;100104.09;;;7.81;100.00
43503;BME280;29098;48.184;16.298;2023-02-20T07:44:51;100110.16;;;7.91;100.00
43503;BME280;29098;48.184;16.298;2023-02-20T07:47:16;100096.31;;;7.89;100.00
43503;BME280;29098;48.184;16.298;2023-02-20T07:49:42;100098.72;;;8.11;100.00
43503;BME280;29098;48.184;16.298;2023-02-20T07:52:07;100090.69;;;8.12;100.00
43503;BME280;29098;48.184;16.298;2023-02-20T07:54:32;100101.78;;;8.06;100.00
43503;BME280;29098;48.184;16.298;2023-02-20T07:56:57;100098.16;;;8.17;100.00
43503;BME280;29098;48.184;16.298;2023-02-20T07:59:23;100095.28;;;8.28;100.00
43503;BME280;29098;48.184;16.298;2023-02-20T08:01:48;100090.03;;;8.28;100.00
43503;BME280;29098;48.184;16.298;2023-02-20T08:04:14;100093.88;;;8.34;100.00
43503;BME280;29098;48.184;16.298;2023-02-20T08:06:39;100096.88;;;8.39;99.99
43503;BME280;29098;48.184;16.298;2023-02-20T08:09:04;100099.38;;;8.41;100.00
43503;BME280;29098;48.184;16.298;2023-02-20T08:11:34;100107.63;;;8.46;100.00
43503;BME280;29098;48.184;16.298;2023-02-20T08:14:00;100112.59;;;8.49;100.00
43503;BME280;29098;48.184;16.298;2023-02-20T08:16:25;100109.53;;;8.54;97.37
43503;BME280;29098;48.184;16.298;2023-02-20T08:18:51;100121.13;;;8.61;98.93
43503;BME280;29098;48.184;16.298;2023-02-20T08:21:16;100122.16;;;8.68;96.43
43503;BME280;29098;48.184;16.298;2023-02-20T08:23:41;100119.03;;;8.83;97.41
43503;BME280;29098;48.184;16.298;2023-02-20T08:26:07;100117.34;;;8.82;94.68
43503;BME280;29098;48.184;16.298;2023-02-20T08:28:32;100112.31;;;8.88;94.57
43503;BME280;29098;48.184;16.298;2023-02-20T08:30:58;100114.69;;;9.00;94.08
43503;BME280;29098;48.184;16.298;2023-02-20T08:33:23;100090.75;;;9.03;94.17
43503;BME280;29098;48.184;16.298;2023-02-20T08:35:48;100091.31;;;9.15;94.25
43503;BME280;29098;48.184;16.298;2023-02-20T08:38:28;100058.63;;;9.17;93.82
43503;BME280;29098;48.184;16.298;2023-02-20T08:40:54;100069.94;;;9.18;93.64
43503;BME280;29098;48.184;16.298;2023-02-20T08:43:19;100078.47;;;9.12;90.28
43503;BME280;29098;48.184;16.298;2023-02-20T08:45:45;100048.19;;;9.08;91.90
43503;BME280;29098;48.184;16.298;2023-02-20T08:48:10;100052.16;;;9.12;91.12
43503;BME280;29098;48.184;16.298;2023-02-20T08:50:36;100057.31;;;9.22;89.27
43503;BME280;29098;48.184;16.298;2023-02-20T08:53:01;100052.31;;;9.10;90.05
43503;BME280;29098;48.184;16.298;2023-02-20T08:55:26;100038.28;;;9.01;88.72
43503;BME280;29098;48.184;16.298;2023-02-20T08:57:52;100054.91;;;9.02;89.57
43503;BME280;29098;48.184;16.298;2023-02-20T09:00:17;100042.31;;;9.14;89.75
43503;BME280;29098;48.184;16.298;2023-02-20T09:02:43;100046.59;;;9.15;88.79
43503;BME280;29098;48.184;16.298;2023-02-20T09:05:10;100052.06;;;9.22;87.67
43503;BME280;29098;48.184;16.298;2023-02-20T09:07:36;100046.53;;;9.33;86.21
43503;BME280;29098;48.184;16.298;2023-02-20T09:10:01;100041.38;;;9.50;85.54
43503;BME280;29098;48.184;16.298;2023-02-20T09:12:26;100037.41;;;9.54;86.05
43503;BME280;29098;48.184;16.298;2023-02-20T09:14:52;100018.84;;;9.55;85.65
43503;BME280;29098;48.184;16.298;2023-02-20T09:17:17;100022.13;;;9.57;83.14
43503;BME280;29098;48.184;16.298;2023-02-20T09:19:42;100035.66;;;9.63;82.38
43503;BME280;29098;48.184;16.298;2023-02-20T09:22:08;100048.78;;;9.54;83.29
43503;BME280;29098;48.184;16.298;2023-02-20T09:24:33;100057.84;;;9.60;82.41
43503;BME280;29098;48.184;16.298;2023-02-20T09:27:00;100032.69;;;9.66;81.93
43503;BME280;29098;48.184;16.298;2023-02-20T09:29:25;100062.50;;;9.66;81.03
43503;BME280;29098;48.184;16.298;2023-02-20T09:31:51;100041.63;;;9.81;81.01
43503;BME280;29098;48.184;16.298;2023-02-20T09:34:16;100047.25;;;9.86;79.97
43503;BME280;29098;48.184;16.298;2023-02-20T09:36:41;100012.53;;;9.91;81.28
43503;BME280;29098;48.184;16.298;2023-02-20T09:39:07;100048.13;;;9.95;79.94
43503;BME280;29098;48.184;16.298;2023-02-20T09:44:29;100032.47;;;9.94;79.47
43503;BME280;29098;48.184;16.298;2023-02-20T09:46:56;100023.06;;;9.91;79.10
43503;BME280;29098;48.184;16.298;2023-02-20T09:49:28;100020.28;;;9.93;79.64
43503;BME280;29098;48.184;16.298;2023-02-20T09:52:02;100025.41;;;10.03;78.99
43503;BME280;29098;48.184;16.298;2023-02-20T09:54:32;100016.38;;;10.05;79.08
43503;BME280;29098;48.184;16.298;2023-02-20T09:57:00;100014.88;;;10.03;77.60
43503;BME280;29098;48.184;16.298;2023-02-20T09:59:43;100013.03;;;9.95;78.42
43503;BME280;29098;48.184;16.298;2023-02-20T10:02:18;100009.44;;;10.04;79.89
43503;BME280;29098;48.184;16.298;2023-02-20T10:04:45;100015.53;;;9.96;78.28
43503;BME280;29098;48.184;16.298;2023-02-20T10:10:18;99999.38;;;9.99;77.36
43503;BME280;29098;48.184;16.298;2023-02-20T10:12:44;99985.06;;;9.94;77.36
43503;BME280;29098;48.184;16.298;2023-02-20T10:17:58;99974.19;;;9.97;76.54
43503;BME280;29098;48.184;16.298;2023-02-20T10:25:38;99950.19;;;10.25;74.82
43503;BME280;29098;48.184;16.298;2023-02-20T10:28:06;99950.84;;;10.27;75.02
43503;BME280;29098;48.184;16.298;2023-02-20T10:30:33;99951.53;;;10.29;73.71
43503;BME280;29098;48.184;16.298;2023-02-20T10:35:39;99952.53;;;10.45;72.95
43503;BME280;29098;48.184;16.298;2023-02-20T10:38:07;99938.38;;;10.46;72.45
43503;BME280;29098;48.184;16.298;2023-02-20T10:48:30;99933.72;;;10.64;70.76
43503;BME280;29098;48.184;16.298;2023-02-20T11:01:24;99893.81;;;10.76;71.26
43503;BME280;29098;48.184;16.298;2023-02-20T11:04:04;99909.06;;;10.97;69.93
43503;BME280;29098;48.184;16.298;2023-02-20T11:06:31;99912.78;;;11.19;68.04
43503;BME280;29098;48.184;16.298;2023-02-20T11:08:58;99876.78;;;11.27;68.30
43503;BME280;29098;48.184;16.298;2023-02-20T11:13:49;99879.00;;;11.70;65.79
43503;BME280;29098;48.184;16.298;2023-02-20T11:19:26;99889.84;;;12.07;64.83
43503;BME280;29098;48.184;16.298;2023-02-20T11:21:52;99869.31;;;12.47;63.31
43503;BME280;29098;48.184;16.298;2023-02-20T11:26:43;99848.16;;;12.47;61.84
43503;BME280;29098;48.184;16.298;2023-02-20T11:31:34;99873.31;;;12.73;60.98
43503;BME280;29098;48.184;16.298;2023-02-20T11:33:59;99873.16;;;12.59;60.49
43503;BME280;29098;48.184;16.298;2023-02-20T11:36:31;99874.19;;;12.20;62.20
43503;BME280;29098;48.184;16.298;2023-02-20T11:39:00;99884.56;;;12.07;62.56
43503;BME280;29098;48.184;16.298;2023-02-20T11:41:34;99879.72;;;12.10;61.29
43503;BME280;29098;48.184;16.298;2023-02-20T11:44:05;99879.00;;;12.16;60.97
43503;BME280;29098;48.184;16.298;2023-02-20T11:46:31;99894.47;;;12.04;61.31
43503;BME280;29098;48.184;16.298;2023-02-20T11:54:21;99855.53;;;11.98;60.73
43503;BME280;29098;48.184;16.298;2023-02-20T11:59:34;99875.25;;;12.11;60.97
43503;BME280;29098;48.184;16.298;2023-02-20T12:04:34;99849.34;;;12.59;59.20
43503;BME280;29098;48.184;16.298;2023-02-20T12:07:00;99866.22;;;12.73;58.70
43503;BME280;29098;48.184;16.298;2023-02-20T12:09:41;99875.81;;;12.59;58.14
43503;BME280;29098;48.184;16.298;2023-02-20T12:12:10;99823.84;;;13.04;57.64
43503;BME280;29098;48.184;16.298;2023-02-20T12:14:38;99824.56;;;13.34;54.60
43503;BME280;29098;48.184;16.298;2023-02-20T12:24:53;99805.66;;;13.81;53.63
43503;BME280;29098;48.184;16.298;2023-02-20T12:37:45;99773.66;;;13.76;52.50
43503;BME280;29098;48.184;16.298;2023-02-20T12:43:00;99777.03;;;13.26;54.06
43503;BME280;29098;48.184;16.298;2023-02-20T12:50:40;99760.47;;;13.89;52.56
43503;BME280;29098;48.184;16.298;2023-02-20T13:00:44;99753.75;;;15.53;47.61
43503;BME280;29098;48.184;16.298;2023-02-20T13:03:18;99737.19;;;15.65;46.82
43503;BME280;29098;48.184;16.298;2023-02-20T13:05:45;99727.75;;;15.89;46.13
43503;BME280;29098;48.184;16.298;2023-02-20T13:08:20;99735.28;;;16.19;45.56
43503;BME280;29098;48.184;16.298;2023-02-20T13:10:51;99723.19;;;16.30;44.54
43503;BME280;29098;48.184;16.298;2023-02-20T13:13:19;99705.06;;;15.86;45.05
43503;BME280;29098;48.184;16.298;2023-02-20T13:15:48;99724.72;;;15.99;44.62
43503;BME280;29098;48.184;16.298;2023-02-20T13:20:49;99712.44;;;15.44;44.56
43503;BME280;29098;48.184;16.298;2023-02-20T13:25:47;99712.44;;;15.78;43.76
43503;BME280;29098;48.184;16.298;2023-02-20T13:33:31;99702.75;;;16.69;41.08
43503;BME280;29098;48.184;16.298;2023-02-20T13:35:56;99702.47;;;16.46;41.59
43503;BME280;29098;48.184;16.298;2023-02-20T13:38:23;99701.28;;;16.28;41.60
43503;BME280;29098;48.184;16.298;2023-02-20T13:58:43;99702.22;;;13.96;45.40
43503;BME280;29098;48.184;16.298;2023-02-20T14:01:08;99699.16;;;13.92;45.71
43503;BME280;29098;48.184;16.298;2023-02-20T14:03:34;99697.28;;;13.93;46.14
43503;BME280;29098;48.184;16.298;2023-02-20T14:08:31;99660.06;;;13.66;46.02
43503;BME280;29098;48.184;16.298;2023-02-20T14:11:04;99688.19;;;13.67;46.53
43503;BME280;29098;48.184;16.298;2023-02-20T14:13:30;99686.44;;;13.81;45.99
43503;BME280;29098;48.184;16.298;2023-02-20T14:15:56;99687.72;;;13.92;45.68
43503;BME280;29098;48.184;16.298;2023-02-20T14:18:25;99682.31;;;14.07;46.41
43503;BME280;29098;48.184;16.298;2023-02-20T14:20:56;99664.53;;;14.01;46.70
43503;BME280;29098;48.184;16.298;2023-02-20T14:23:27;99679.09;;;14.18;45.37
43503;BME280;29098;48.184;16.298;2023-02-20T14:25:57;99666.69;;;14.32;44.90
43503;BME280;29098;48.184;16.298;2023-02-20T14:28:22;99664.97;;;14.60;44.77
43503;BME280;29098;48.184;16.298;2023-02-20T14:31:01;99658.84;;;14.66;43.95
43503;BME280;29098;48.184;16.298;2023-02-20T14:33:27;99657.47;;;14.97;43.85
43503;BME280;29098;48.184;16.298;2023-02-20T14:36:08;99678.31;;;15.07;42.98
43503;BME280;29098;48.184;16.298;2023-02-20T14:38:44;99645.09;;;14.42;44.32
43503;BME280;29098;48.184;16.298;2023-02-20T14:41:14;99644.31;;;14.48;44.96
43503;BME280;29098;48.184;16.298;2023-02-20T14:43:41;99650.22;;;14.37;45.42
43503;BME280;29098;48.184;16.298;2023-02-20T14:46:07;99639.31;;;14.18;45.63
43503;BME280;29098;48.184;16.298;2023-02-20T14:48:36;99654.66;;;14.30;45.74
43503;BME280;29098;48.184;16.298;2023-02-20T14:51:13;99630.69;;;14.03;45.92
43503;BME280;29098;48.184;16.298;2023-02-20T14:53:39;99650.81;;;13.90;46.86
43503;BME280;29098;48.184;16.298;2023-02-20T14:56:12;99626.25;;;13.75;46.76
43503;BME280;29098;48.184;16.298;2023-02-20T14:58:38;99629.88;;;13.60;47.33
43503;BME280;29098;48.184;16.298;2023-02-20T15:01:13;99636.16;;;13.59;47.23
43503;BME280;29098;48.184;16.298;2023-02-20T15:03:39;99617.88;;;13.42;47.55
43503;BME280;29098;48.184;16.298;2023-02-20T15:06:05;99627.25;;;13.38;47.66
43503;BME280;29098;48.184;16.298;2023-02-20T15:08:31;99617.16;;;13.27;48.33
43503;BME280;29098;48.184;16.298;2023-02-20T15:11:04;99625.53;;;13.31;48.21
43503;BME280;29098;48.184;16.298;2023-02-20T15:13:33;99620.59;;;13.21;48.41
43503;BME280;29098;48.184;16.298;2023-02-20T15:16:04;99621.84;;;13.25;48.07
43503;BME280;29098;48.184;16.298;2023-02-20T15:18:37;99614.09;;;13.23;48.26